createdAt,value
2018-12-04T00:00:37.128Z,46.83
2018-12-04T00:03:06.974Z,51.13
2018-12-04T00:05:36.064Z,49.13
2018-12-04T00:08:04.962Z,52.17
2018-12-04T00:10:34.549Z,49.13
2018-12-04T00:13:04.317Z,50.00
2018-12-04T00:15:33.201Z,51.53
2018-12-04T00:18:03.158Z,53.67
2018-12-04T00:20:32.009Z,55.10
2018-12-04T00:23:00.901Z,52.43
2018-12-04T00:25:29.874Z,54.10
2018-12-04T00:27:59.597Z,54.80
2018-12-04T00:30:28.465Z,59.93
2018-12-04T00:32:57.402Z,52.57
2018-12-04T00:35:26.273Z,53.87
2018-12-04T00:37:55.457Z,55.73
2018-12-04T00:40:24.433Z,56.50
2018-12-04T00:42:53.591Z,56.13
2018-12-04T00:45:22.519Z,58.63
2018-12-04T00:47:51.439Z,60.00
2018-12-04T00:50:20.728Z,62.90
2018-12-04T00:52:50.331Z,61.90
2018-12-04T00:55:19.380Z,59.93
2018-12-04T00:57:48.258Z,60.60
2018-12-04T01:00:17.124Z,65.53
2018-12-04T01:02:46.181Z,62.00
2018-12-04T01:05:15.297Z,63.57
2018-12-04T01:07:44.187Z,62.83
2018-12-04T01:10:13.344Z,58.43
2018-12-04T01:12:42.728Z,56.93
2018-12-04T01:15:11.788Z,60.50
2018-12-04T01:17:40.747Z,62.50
2018-12-04T01:20:09.654Z,69.70
2018-12-04T01:22:39.029Z,62.80
2018-12-04T01:25:08.358Z,63.53
2018-12-04T01:27:37.363Z,66.53
2018-12-04T01:30:06.727Z,63.40
2018-12-04T01:32:35.644Z,61.50
2018-12-04T01:35:04.915Z,61.83
2018-12-04T01:37:33.792Z,64.00
2018-12-04T01:40:03.174Z,64.00
2018-12-04T01:42:32.446Z,63.60
2018-12-04T01:45:01.596Z,62.13
2018-12-04T01:47:30.477Z,67.47
2018-12-04T01:49:59.378Z,61.90
2018-12-04T01:52:29.122Z,65.07
2018-12-04T01:54:58.038Z,65.03
2018-12-04T01:57:27.401Z,61.97
2018-12-04T01:59:57.346Z,62.77
2018-12-04T02:02:26.809Z,64.40
2018-12-04T02:04:56.054Z,62.70
2018-12-04T02:07:24.951Z,61.97
2018-12-04T02:09:54.637Z,60.67
2018-12-04T02:12:23.543Z,62.53
2018-12-04T02:14:52.571Z,67.07
2018-12-04T02:17:21.508Z,63.37
2018-12-04T02:19:50.388Z,61.57
2018-12-04T02:22:19.310Z,61.50
2018-12-04T02:24:48.212Z,62.87
2018-12-04T02:27:17.143Z,62.33
2018-12-04T02:29:46.633Z,63.17
2018-12-04T02:32:15.652Z,59.87
2018-12-04T02:34:44.909Z,58.57
2018-12-04T02:37:13.950Z,59.07
2018-12-04T02:39:42.911Z,61.17
2018-12-04T02:42:11.849Z,55.77
2018-12-04T02:44:40.761Z,59.90
2018-12-04T02:47:09.651Z,58.70
2018-12-04T02:49:38.552Z,61.87
2018-12-04T02:52:07.492Z,63.23
2018-12-04T02:54:36.363Z,63.37
2018-12-04T02:57:05.737Z,62.03
2018-12-04T02:59:34.603Z,58.67
2018-12-04T03:02:03.482Z,62.20
2018-12-04T03:04:32.415Z,60.57
2018-12-04T03:07:01.297Z,61.27
2018-12-04T03:09:31.161Z,61.50
2018-12-04T03:12:00.490Z,67.73
2018-12-04T03:14:29.356Z,63.37
2018-12-04T03:16:58.224Z,63.33
2018-12-04T03:19:27.141Z,63.97
2018-12-04T03:21:56.031Z,63.73
2018-12-04T03:24:24.897Z,63.03
2018-12-04T03:26:53.819Z,59.97
2018-12-04T03:29:22.758Z,59.70
2018-12-04T03:31:51.635Z,63.83
2018-12-04T03:34:20.504Z,62.87
2018-12-04T03:36:49.763Z,62.27
2018-12-04T03:39:18.660Z,67.60
2018-12-04T03:41:48.286Z,63.93
2018-12-04T03:44:18.054Z,64.67
2018-12-04T03:46:47.753Z,65.07
2018-12-04T03:49:16.654Z,63.57
2018-12-04T03:51:45.561Z,59.23
2018-12-04T03:54:15.044Z,65.87
2018-12-04T03:56:43.982Z,66.10
2018-12-04T03:59:13.227Z,63.87
2018-12-04T04:01:42.926Z,65.17
2018-12-04T04:04:11.868Z,64.90
2018-12-04T04:06:40.952Z,66.47
2018-12-04T04:09:09.921Z,66.30
2018-12-04T04:11:38.847Z,66.73
2018-12-04T04:14:07.750Z,68.60
2018-12-04T04:16:36.723Z,68.27
2018-12-04T04:19:05.686Z,71.73
2018-12-04T04:21:34.636Z,68.43
2018-12-04T04:24:03.615Z,69.20
2018-12-04T04:26:33.413Z,70.67
2018-12-04T04:29:02.287Z,72.27
2018-12-04T04:31:31.215Z,69.63
2018-12-04T04:34:00.617Z,68.53
2018-12-04T04:36:29.562Z,74.60
2018-12-04T04:38:58.487Z,69.83
2018-12-04T04:41:28.122Z,72.83
2018-12-04T04:43:57.186Z,70.33
2018-12-04T04:46:26.107Z,73.30
2018-12-04T04:48:54.974Z,64.37
2018-12-04T04:51:23.858Z,69.67
2018-12-04T04:53:52.756Z,71.50
2018-12-04T04:56:21.648Z,68.13
2018-12-04T04:58:50.745Z,70.90
2018-12-04T05:01:19.693Z,74.00
2018-12-04T05:03:49.553Z,72.00
2018-12-04T05:06:18.705Z,74.50
2018-12-04T05:08:47.629Z,76.90
2018-12-04T05:11:16.872Z,74.40
2018-12-04T05:13:45.972Z,76.50
2018-12-04T05:16:14.829Z,81.13
2018-12-04T05:18:44.227Z,80.57
2018-12-04T05:21:13.157Z,78.90
2018-12-04T05:23:42.056Z,71.30
2018-12-04T05:26:11.243Z,79.33
2018-12-04T05:28:40.136Z,76.80
2018-12-04T05:31:08.992Z,73.43
2018-12-04T05:33:37.842Z,80.37
2018-12-04T05:36:06.844Z,72.67
2018-12-04T05:38:35.753Z,81.07
2018-12-04T05:41:04.682Z,75.80
2018-12-04T05:43:33.552Z,76.77
2018-12-04T05:46:02.412Z,76.37
2018-12-04T05:48:31.375Z,73.50
2018-12-04T05:51:00.220Z,74.70
2018-12-04T05:53:33.915Z,72.90
2018-12-04T05:56:02.836Z,76.40
2018-12-04T05:58:31.713Z,72.73
2018-12-04T06:01:00.632Z,67.63
2018-12-04T06:03:29.579Z,68.80
2018-12-04T06:05:58.504Z,77.17
2018-12-04T06:08:27.351Z,75.90
2018-12-04T06:10:56.248Z,76.37
2018-12-04T06:13:25.138Z,71.13
2018-12-04T06:15:54.009Z,79.30
2018-12-04T06:18:22.923Z,72.57
2018-12-04T06:20:51.827Z,71.00
2018-12-04T06:23:20.733Z,70.53
2018-12-04T06:25:49.675Z,66.73
2018-12-04T06:28:18.582Z,65.00
2018-12-04T06:30:47.483Z,69.13
2018-12-04T06:33:16.410Z,64.77
2018-12-04T06:35:45.909Z,66.47
2018-12-04T06:38:14.816Z,66.20
2018-12-04T06:40:43.801Z,64.97
2018-12-04T06:43:12.691Z,66.43
2018-12-04T06:45:41.552Z,65.47
2018-12-04T06:48:10.528Z,66.13
2018-12-04T06:50:39.949Z,62.90
2018-12-04T06:53:08.827Z,67.83
2018-12-04T06:55:37.752Z,64.47
2018-12-04T06:58:07.140Z,64.77
2018-12-04T07:00:36.137Z,63.40
2018-12-04T07:03:05.052Z,62.10
2018-12-04T07:05:34.508Z,62.07
2018-12-04T07:08:03.458Z,59.83
2018-12-04T07:10:32.370Z,65.20
2018-12-04T07:13:01.282Z,60.13
2018-12-04T07:15:30.235Z,64.03
2018-12-04T07:17:59.127Z,63.47
2018-12-04T07:20:28.062Z,66.27
2018-12-04T07:22:57.182Z,61.13
2018-12-04T07:25:26.164Z,58.47
2018-12-04T07:27:55.963Z,57.00
2018-12-04T07:30:24.879Z,56.93
2018-12-04T07:32:53.993Z,55.97
2018-12-04T07:35:22.864Z,54.93
2018-12-04T07:37:51.782Z,57.63
2018-12-04T07:40:20.682Z,56.73
2018-12-04T07:42:49.619Z,57.10
2018-12-04T07:45:18.526Z,57.27
2018-12-04T07:47:47.369Z,57.03
2018-12-04T07:50:16.215Z,59.97
2018-12-04T07:52:45.172Z,58.63
2018-12-04T07:55:14.025Z,54.67
2018-12-04T07:57:42.927Z,57.57
2018-12-04T08:00:11.919Z,52.77
2018-12-04T08:02:41.734Z,56.87
2018-12-04T08:05:11.055Z,59.83
2018-12-04T08:07:40.324Z,66.27
2018-12-04T08:10:09.362Z,67.57
2018-12-04T08:12:38.309Z,61.83
2018-12-04T08:15:08.122Z,55.73
2018-12-04T08:17:37.054Z,52.23
2018-12-04T08:20:07.145Z,54.87
2018-12-04T08:22:36.002Z,60.77
2018-12-04T08:25:05.218Z,52.83
2018-12-04T08:27:36.313Z,54.43
2018-12-04T08:30:07.094Z,53.13
2018-12-04T08:32:35.935Z,49.03
2018-12-04T08:35:06.351Z,50.27
2018-12-04T08:37:35.225Z,54.57
2018-12-04T08:40:04.294Z,48.73
2018-12-04T08:42:33.171Z,47.13
2018-12-04T08:45:02.029Z,48.73
2018-12-04T08:47:30.963Z,50.20
2018-12-04T08:49:59.821Z,48.50
2018-12-04T08:52:28.756Z,47.17
2018-12-04T08:54:57.646Z,47.13
2018-12-04T08:57:26.881Z,46.80
2018-12-04T08:59:55.782Z,50.13
2018-12-04T09:02:24.644Z,52.43
2018-12-04T09:04:53.539Z,44.77
2018-12-04T09:07:22.505Z,51.13
2018-12-04T09:09:51.678Z,46.43
2018-12-04T09:12:21.516Z,50.00
2018-12-04T09:14:50.445Z,47.43
2018-12-04T09:17:19.343Z,47.53
2018-12-04T09:19:48.266Z,48.37
2018-12-04T09:22:17.146Z,48.27
2018-12-04T09:24:46.209Z,46.73
2018-12-04T09:27:15.269Z,45.80
2018-12-04T09:29:44.278Z,45.87
2018-12-04T09:32:13.323Z,48.47
2018-12-04T09:34:42.449Z,46.27
2018-12-04T09:37:11.379Z,46.57
2018-12-04T09:39:40.293Z,46.00
2018-12-04T09:42:09.225Z,47.40
2018-12-04T09:44:38.217Z,47.70
2018-12-04T09:47:07.109Z,47.13
2018-12-04T09:49:35.964Z,46.90
2018-12-04T09:52:04.888Z,48.10
2018-12-04T09:54:33.756Z,50.30
2018-12-04T09:57:02.668Z,49.23
2018-12-04T09:59:31.545Z,47.97
2018-12-04T10:02:00.405Z,48.20
2018-12-04T10:04:29.291Z,46.57
2018-12-04T10:06:58.489Z,46.67
2018-12-04T10:09:27.681Z,55.40
2018-12-04T10:11:56.608Z,53.20
2018-12-04T10:14:25.496Z,51.27
2018-12-04T10:16:54.440Z,48.73
2018-12-04T10:19:23.487Z,44.00
2018-12-04T10:21:52.446Z,49.10
2018-12-04T10:24:21.337Z,46.53
2018-12-04T10:26:55.545Z,51.87
2018-12-04T10:29:24.439Z,51.30
2018-12-04T10:31:56.164Z,47.43
2018-12-04T10:34:24.696Z,50.20
2018-12-04T10:36:53.562Z,55.53
2018-12-04T10:39:22.420Z,51.93
2018-12-04T10:41:51.345Z,50.67
2018-12-04T10:44:20.192Z,47.80
2018-12-04T10:46:49.129Z,56.43
2018-12-04T10:49:18.115Z,54.80
2018-12-04T10:51:47.075Z,49.53
2018-12-04T10:54:15.967Z,51.80
2018-12-04T10:56:44.836Z,54.57
2018-12-04T10:59:13.761Z,51.10
2018-12-04T11:01:47.881Z,53.83
2018-12-04T11:04:16.817Z,56.57
2018-12-04T11:06:45.825Z,58.80
2018-12-04T11:09:14.680Z,62.93
2018-12-04T11:11:43.544Z,57.47
2018-12-04T11:14:12.664Z,54.43
2018-12-04T11:16:41.953Z,53.17
2018-12-04T11:19:10.914Z,56.87
2018-12-04T11:21:39.866Z,57.83
2018-12-04T11:24:08.738Z,57.23
2018-12-04T11:26:38.332Z,56.43
2018-12-04T11:29:07.184Z,57.73
2018-12-04T11:31:36.200Z,53.63
2018-12-04T11:34:05.131Z,58.13
2018-12-04T11:36:34.019Z,57.40
2018-12-04T11:39:03.158Z,61.03
2018-12-04T11:41:31.997Z,55.03
2018-12-04T11:44:00.960Z,52.47
2018-12-04T11:46:29.941Z,64.40
2018-12-04T11:48:58.804Z,57.63
2018-12-04T11:51:27.676Z,55.93
2018-12-04T11:53:56.570Z,60.57
2018-12-04T11:56:25.430Z,61.93
2018-12-04T11:58:54.338Z,76.80
2018-12-04T12:01:30.671Z,71.43
2018-12-04T12:03:59.507Z,60.13
2018-12-04T12:06:28.381Z,55.47
2018-12-04T12:08:57.275Z,58.53
2018-12-04T12:11:26.351Z,65.17
2018-12-04T12:13:55.228Z,66.47
2018-12-04T12:16:24.174Z,61.10
2018-12-04T12:18:53.124Z,55.53
2018-12-04T12:21:22.016Z,52.43
2018-12-04T12:23:50.859Z,51.23
2018-12-04T12:26:19.728Z,51.30
2018-12-04T12:28:48.607Z,59.90
2018-12-04T12:31:19.471Z,79.70
2018-12-04T12:33:48.344Z,80.33
2018-12-04T12:36:17.208Z,70.03
2018-12-04T12:38:46.074Z,62.07
2018-12-04T12:41:15.015Z,66.23
2018-12-04T12:43:44.024Z,72.17
2018-12-04T12:46:12.884Z,62.93
2018-12-04T12:48:41.774Z,63.83
2018-12-04T12:51:11.579Z,67.83
2018-12-04T12:53:40.593Z,59.63
2018-12-04T12:56:09.484Z,63.27
2018-12-04T12:58:38.436Z,57.60
2018-12-04T13:01:07.456Z,55.57
2018-12-04T13:03:36.414Z,56.57
2018-12-04T13:06:05.334Z,61.80
2018-12-04T13:08:34.335Z,61.90
2018-12-04T13:11:03.297Z,49.83
2018-12-04T13:13:36.844Z,46.13
2018-12-04T13:16:03.077Z,50.57
2018-12-04T13:18:32.058Z,48.60
2018-12-04T13:21:00.944Z,47.57
2018-12-04T13:23:30.557Z,45.77
2018-12-04T13:25:59.465Z,47.10
2018-12-04T13:28:28.333Z,49.93
2018-12-04T13:30:57.237Z,49.57
2018-12-04T13:33:26.273Z,51.40
2018-12-04T13:35:55.197Z,53.00
2018-12-04T13:38:24.157Z,51.33
2018-12-04T13:40:53.020Z,51.53
2018-12-04T13:43:21.924Z,49.97
2018-12-04T13:45:50.778Z,52.17
2018-12-04T13:48:19.655Z,53.80
2018-12-04T13:50:48.557Z,50.97
2018-12-04T13:53:17.405Z,53.80
2018-12-04T13:55:46.256Z,51.90
2018-12-04T13:58:15.188Z,52.37
2018-12-04T14:00:44.062Z,45.10
2018-12-04T14:03:12.954Z,49.70
2018-12-04T14:05:41.876Z,54.73
2018-12-04T14:08:10.708Z,47.40
2018-12-04T14:10:39.597Z,40.93
2018-12-04T14:13:08.548Z,40.57
2018-12-04T14:15:37.633Z,41.37
2018-12-04T14:18:06.511Z,47.80
2018-12-04T14:20:35.501Z,37.27
2018-12-04T14:23:04.374Z,34.57
2018-12-04T14:25:33.257Z,31.50
2018-12-04T14:28:02.126Z,37.67
2018-12-04T14:30:31.097Z,33.23
2018-12-04T14:33:00.031Z,26.07
2018-12-04T14:35:28.928Z,29.17
2018-12-04T14:37:57.835Z,31.17
2018-12-04T14:40:26.823Z,24.87
2018-12-04T14:42:55.952Z,23.83
2018-12-04T14:45:25.900Z,24.90
2018-12-04T14:47:55.107Z,25.57
2018-12-04T14:50:24.201Z,28.13
2018-12-04T14:52:53.360Z,29.67
2018-12-04T14:55:22.611Z,34.73
2018-12-04T14:57:51.931Z,24.67
2018-12-04T15:00:21.209Z,31.53
2018-12-04T15:02:50.356Z,22.60
2018-12-04T15:05:19.608Z,25.03
2018-12-04T15:07:48.775Z,21.47
2018-12-04T15:10:17.889Z,25.00
2018-12-04T15:12:47.027Z,19.37
2018-12-04T15:15:16.193Z,17.90
2018-12-04T15:17:45.477Z,19.97
2018-12-04T15:20:14.679Z,19.27
2018-12-04T15:22:43.842Z,15.83
2018-12-04T15:25:13.092Z,17.50
2018-12-04T15:27:42.296Z,14.70
2018-12-04T15:30:11.473Z,14.47
2018-12-04T15:32:40.697Z,14.30
2018-12-04T15:35:10.041Z,14.47
2018-12-04T15:37:39.245Z,21.90
2018-12-04T15:40:08.900Z,18.00
2018-12-04T15:42:38.237Z,18.50
2018-12-04T15:45:07.605Z,15.93
2018-12-04T15:47:36.832Z,19.33
2018-12-04T15:50:06.944Z,15.63
2018-12-04T15:52:36.178Z,18.40
2018-12-04T15:55:05.715Z,13.10
2018-12-04T15:57:34.837Z,12.03
2018-12-04T16:00:05.580Z,19.50
2018-12-04T16:02:34.860Z,16.43
2018-12-04T16:05:04.163Z,19.27
2018-12-04T16:07:34.465Z,22.10
2018-12-04T16:10:03.888Z,19.30
2018-12-04T16:12:33.029Z,17.80
2018-12-04T16:15:02.210Z,15.43
2018-12-04T16:17:31.351Z,20.07
2018-12-04T16:20:00.517Z,15.80
2018-12-04T16:22:29.632Z,20.87
2018-12-04T16:24:58.777Z,19.70
2018-12-04T16:27:27.916Z,20.67
2018-12-04T16:29:57.019Z,20.13
2018-12-04T16:32:26.129Z,18.83
2018-12-04T16:34:55.258Z,19.03
2018-12-04T16:37:24.403Z,14.67
2018-12-04T16:39:53.694Z,16.33
2018-12-04T16:42:22.911Z,14.07
2018-12-04T16:44:52.075Z,17.20
2018-12-04T16:47:21.244Z,19.60
2018-12-04T16:49:51.668Z,19.87
2018-12-04T16:52:20.768Z,18.40
2018-12-04T16:54:49.892Z,18.37
2018-12-04T16:57:19.031Z,21.07
2018-12-04T16:59:48.180Z,16.17
2018-12-04T17:02:17.371Z,13.03
2018-12-04T17:04:46.501Z,17.47
2018-12-04T17:07:15.817Z,18.80
2018-12-04T17:09:44.936Z,16.37
2018-12-04T17:12:14.045Z,20.00
2018-12-04T17:14:43.212Z,19.10
2018-12-04T17:17:12.321Z,17.97
2018-12-04T17:19:41.485Z,17.87
2018-12-04T17:22:10.640Z,20.63
2018-12-04T17:24:39.783Z,19.60
2018-12-04T17:27:08.943Z,22.97
2018-12-04T17:29:38.069Z,17.53
2018-12-04T17:32:07.196Z,20.83
2018-12-04T17:34:36.397Z,20.10
2018-12-04T17:37:05.678Z,21.63
2018-12-04T17:39:34.987Z,22.33
2018-12-04T17:42:04.109Z,22.40
2018-12-04T17:44:40.011Z,21.37
2018-12-04T17:47:04.614Z,20.70
2018-12-04T17:49:35.129Z,21.50
2018-12-04T17:52:04.441Z,25.73
2018-12-04T17:54:33.558Z,26.43
2018-12-04T17:57:02.905Z,28.00
2018-12-04T17:59:32.155Z,23.53
2018-12-04T18:02:01.427Z,27.57
2018-12-04T18:04:30.635Z,37.20
2018-12-04T18:06:59.861Z,33.23
2018-12-04T18:09:29.929Z,28.53
2018-12-04T18:11:59.061Z,32.70
2018-12-04T18:14:28.277Z,44.17
2018-12-04T18:16:57.489Z,33.43
2018-12-04T18:19:26.817Z,30.43
2018-12-04T18:21:55.944Z,32.27
2018-12-04T18:24:25.134Z,28.93
2018-12-04T18:26:54.641Z,38.63
2018-12-04T18:29:23.824Z,36.67
2018-12-04T18:31:53.338Z,31.83
2018-12-04T18:34:22.695Z,39.20
2018-12-04T18:36:51.969Z,41.23
2018-12-04T18:39:21.495Z,33.87
2018-12-04T18:41:50.829Z,29.43
2018-12-04T18:44:22.119Z,35.77
2018-12-04T18:46:51.345Z,33.63
2018-12-04T18:49:20.562Z,31.33
2018-12-04T18:51:50.935Z,39.87
2018-12-04T18:54:20.104Z,37.87
2018-12-04T18:56:49.569Z,35.97
2018-12-04T18:59:18.792Z,32.70
2018-12-04T19:01:47.940Z,33.87
2018-12-04T19:04:17.092Z,29.83
2018-12-04T19:06:46.321Z,35.47
2018-12-04T19:09:15.463Z,32.70
2018-12-04T19:11:44.597Z,36.37
2018-12-04T19:14:14.700Z,38.40
2018-12-04T19:16:43.818Z,37.90
2018-12-04T19:19:13.020Z,49.60
2018-12-04T19:21:42.259Z,46.20
2018-12-04T19:24:11.385Z,37.27
2018-12-04T19:26:40.508Z,49.90
2018-12-04T19:29:09.732Z,45.13
2018-12-04T19:31:38.983Z,47.83
2018-12-04T19:34:08.166Z,41.83
2018-12-04T19:36:38.017Z,90.20
2018-12-04T19:39:09.026Z,71.43
2018-12-04T19:41:38.236Z,84.23
2018-12-04T19:44:07.365Z,56.83
2018-12-04T19:46:36.560Z,52.10
2018-12-04T19:49:06.749Z,69.90
2018-12-04T19:51:35.895Z,82.50
2018-12-04T19:54:05.494Z,95.60
2018-12-04T19:56:34.755Z,66.30
2018-12-04T19:59:03.984Z,58.97
2018-12-04T20:01:33.102Z,72.53
2018-12-04T20:04:02.272Z,51.73
2018-12-04T20:06:31.656Z,62.63
2018-12-04T20:09:03.250Z,42.60
2018-12-04T20:11:34.448Z,61.07
2018-12-04T20:14:04.492Z,47.57
2018-12-04T20:16:33.785Z,53.73
2018-12-04T20:19:03.068Z,50.73
2018-12-04T20:21:33.113Z,38.20
2018-12-04T20:24:02.368Z,40.37
2018-12-04T20:26:31.566Z,39.77
2018-12-04T20:29:00.827Z,45.90
2018-12-04T20:31:30.810Z,42.23
2018-12-04T20:34:00.010Z,40.17
2018-12-04T20:36:29.164Z,41.63
2018-12-04T20:38:58.564Z,41.97
2018-12-04T20:41:27.786Z,44.13
2018-12-04T20:43:56.893Z,40.07
2018-12-04T20:46:26.102Z,42.30
2018-12-04T20:48:55.720Z,47.33
2018-12-04T20:51:25.561Z,52.53
2018-12-04T20:53:54.770Z,64.57
2018-12-04T20:56:23.879Z,70.97
2018-12-04T20:58:53.152Z,65.87
2018-12-04T21:01:22.652Z,89.17
2018-12-04T21:03:51.788Z,112.67
2018-12-04T21:06:21.204Z,78.93
2018-12-04T21:08:50.397Z,67.93
2018-12-04T21:11:19.533Z,60.63
2018-12-04T21:13:48.648Z,65.63
2018-12-04T21:16:17.865Z,59.63
2018-12-04T21:18:46.976Z,48.03
2018-12-04T21:21:16.917Z,78.67
2018-12-04T21:23:46.084Z,61.73
2018-12-04T21:26:15.255Z,48.60
2018-12-04T21:28:49.010Z,43.77
2018-12-04T21:31:23.789Z,52.50
2018-12-04T21:33:59.302Z,39.17
2018-12-04T21:36:33.491Z,45.13
2018-12-04T21:40:04.698Z,59.37
2018-12-04T21:42:39.034Z,45.20
2018-12-04T21:45:13.606Z,53.67
2018-12-04T21:47:48.004Z,58.03
2018-12-04T21:50:17.236Z,67.73
2018-12-04T21:52:46.428Z,75.77
2018-12-04T21:55:15.675Z,68.23
2018-12-04T21:57:46.253Z,75.87
2018-12-04T22:00:15.428Z,62.40
2018-12-04T22:02:44.612Z,60.63
2018-12-04T22:05:13.842Z,47.67
2018-12-04T22:07:43.121Z,44.50
2018-12-04T22:10:12.288Z,46.00
2018-12-04T22:12:41.409Z,43.37
2018-12-04T22:15:10.761Z,48.20
2018-12-04T22:17:39.912Z,48.27
2018-12-04T22:20:09.029Z,44.00
2018-12-04T22:22:38.223Z,38.07
2018-12-04T22:25:07.379Z,34.60
2018-12-04T22:27:36.514Z,36.87
2018-12-04T22:30:07.033Z,38.10
2018-12-04T22:32:36.217Z,44.63
2018-12-04T22:35:05.526Z,43.70
2018-12-04T22:37:34.672Z,39.37
2018-12-04T22:40:04.104Z,36.17
2018-12-04T22:42:33.411Z,31.23
2018-12-04T22:45:07.701Z,36.97
2018-12-04T22:47:37.597Z,35.37
2018-12-04T22:50:06.841Z,42.30
2018-12-04T22:52:36.091Z,39.40
2018-12-04T22:55:05.549Z,48.93
2018-12-04T22:57:34.672Z,43.47
2018-12-04T23:00:05.893Z,40.23
2018-12-04T23:02:35.205Z,39.27
2018-12-04T23:05:04.744Z,39.53
2018-12-04T23:07:34.318Z,30.33
2018-12-04T23:10:03.950Z,35.87
2018-12-04T23:12:33.061Z,33.90
2018-12-04T23:15:02.203Z,48.63
2018-12-04T23:17:31.329Z,30.20
2018-12-04T23:20:00.520Z,34.13
2018-12-04T23:22:29.617Z,32.97
2018-12-04T23:24:58.748Z,31.20
2018-12-04T23:27:27.890Z,25.53
2018-12-04T23:29:57.012Z,32.73
2018-12-04T23:32:26.112Z,47.30
2018-12-04T23:34:55.313Z,47.03
2018-12-04T23:37:24.440Z,40.00
2018-12-04T23:39:53.634Z,41.53
2018-12-04T23:42:22.820Z,39.47
2018-12-04T23:44:51.994Z,34.33
2018-12-04T23:47:21.176Z,29.07
2018-12-04T23:49:50.323Z,40.13
2018-12-04T23:52:19.461Z,31.47
2018-12-04T23:54:48.679Z,27.93
2018-12-04T23:57:17.793Z,25.33
2018-12-04T23:59:46.939Z,30.67
